Time;durP1;ratioP1;P1;durP2;ratioP2;P2;SDS_P1;SDS_P2;PMS_P1;PMS_P2;Temp;Humidity;BMP_temperature;BMP_pressure;BME280_temperature;BME280_humidity;BME280_pressure;Samples;Min_cycle;Max_cycle;Signal;HPM_P1;HPM_P2
2022/05/07 00:01:00;;;;;;;22.10;12.32;;;;;;;14.45;67.11;102068.56;3556777;40;20072;-64
2022/05/07 00:03:26;;;;;;;23.35;12.85;;;;;;;14.41;67.27;102072.41;3558660;40;20380;-63
2022/05/07 00:05:51;;;;;;;24.13;13.30;;;;;;;14.39;67.39;102071.63;3560705;40;20051;-63
2022/05/07 00:08:17;;;;;;;28.60;13.50;;;;;;;14.31;67.51;102054.97;3558951;40;20395;-62
2022/05/07 00:10:43;;;;;;;19.00;12.98;;;;;;;14.32;67.96;102075.66;3560140;40;20053;-66
2022/05/07 00:13:09;;;;;;;20.25;13.95;;;;;;;14.13;67.51;102040.66;3558539;40;20056;-64
2022/05/07 00:15:35;;;;;;;25.75;14.15;;;;;;;14.10;68.05;102030.03;3558755;40;20123;-64
2022/05/07 00:18:06;;;;;;;24.98;16.10;;;;;;;14.22;68.00;102063.63;3557143;40;20049;-64
2022/05/07 00:20:34;;;;;;;24.20;15.68;;;;;;;14.17;67.88;102070.13;3557844;40;20081;-65
2022/05/07 00:23:01;;;;;;;28.55;16.95;;;;;;;14.06;68.57;102050.97;3557840;40;20053;-64
2022/05/07 00:25:29;;;;;;;23.70;15.27;;;;;;;14.09;68.92;102058.03;3558164;40;20069;-64
2022/05/07 00:27:55;;;;;;;23.40;15.30;;;;;;;13.97;68.95;102048.78;3560369;40;20101;-64
2022/05/07 00:30:21;;;;;;;20.65;16.10;;;;;;;14.01;68.76;102053.06;3560757;40;20049;-64
2022/05/07 00:32:47;;;;;;;28.98;15.98;;;;;;;13.90;69.18;102052.81;3559858;40;20052;-64
2022/05/07 00:35:13;;;;;;;32.05;17.25;;;;;;;13.80;69.12;102043.47;3559281;40;20462;-64
2022/05/07 00:37:39;;;;;;;24.48;15.43;;;;;;;13.85;69.42;102060.28;3560168;40;20099;-64
2022/05/07 00:40:06;;;;;;;23.98;15.55;;;;;;;13.84;69.45;102056.72;3559406;40;20065;-63
2022/05/07 00:42:32;;;;;;;28.45;16.63;;;;;;;13.77;69.32;102035.53;3557811;40;20147;-65
2022/05/07 00:44:58;;;;;;;27.05;16.25;;;;;;;13.73;69.67;102028.53;3559364;40;20060;-63
2022/05/07 00:47:31;;;;;;;23.00;16.23;;;;;;;13.83;69.58;102046.88;3559598;40;20363;-64
2022/05/07 00:52:46;;;;;;;21.38;15.50;;;;;;;13.77;69.50;102031.00;3558782;40;20085;-64
2022/05/07 00:55:14;;;;;;;24.17;16.75;;;;;;;13.78;69.21;102046.25;3559404;40;20328;-64
2022/05/07 00:57:41;;;;;;;24.95;16.75;;;;;;;13.75;69.03;102042.84;3558208;40;20069;-65
2022/05/07 01:00:09;;;;;;;22.10;17.00;;;;;;;13.74;69.20;102033.00;3558571;40;20049;-63
2022/05/07 01:02:36;;;;;;;25.35;16.98;;;;;;;13.77;69.26;102038.22;3558425;40;20053;-64
2022/05/07 01:05:06;;;;;;;24.60;17.23;;;;;;;13.79;69.17;102036.28;3558460;40;20296;-64
2022/05/07 01:07:36;;;;;;;23.30;17.65;;;;;;;13.58;68.93;102005.97;3558791;40;20048;-64
2022/05/07 01:10:04;;;;;;;25.00;16.83;;;;;;;13.81;68.63;102043.38;3559555;40;20049;-64
2022/05/07 01:12:30;;;;;;;26.55;17.33;;;;;;;13.76;69.34;102039.16;3557123;40;20443;-63
2022/05/07 01:15:00;;;;;;;25.40;17.40;;;;;;;13.72;69.79;102035.78;3559573;40;20045;-62
2022/05/07 01:17:26;;;;;;;25.35;18.25;;;;;;;13.76;69.76;102036.47;3559327;40;20381;-62
2022/05/07 01:19:53;;;;;;;24.60;19.42;;;;;;;13.76;68.94;102037.34;3559577;40;20068;-63
2022/05/07 01:22:22;;;;;;;21.85;18.83;;;;;;;13.72;68.79;102021.38;3557922;40;20068;-63
2022/05/07 01:24:47;;;;;;;25.95;19.95;;;;;;;13.74;68.28;102036.56;3558934;40;20053;-64
2022/05/07 01:27:13;;;;;;;24.08;20.00;;;;;;;13.73;68.36;102026.69;3559376;40;20068;-63
2022/05/07 01:29:38;;;;;;;22.83;19.30;;;;;;;13.53;68.71;101990.00;3558516;40;20388;-63
2022/05/07 01:32:05;;;;;;;24.38;19.60;;;;;;;13.44;68.83;101975.16;3558534;40;20253;-64
2022/05/07 01:34:30;;;;;;;27.85;19.90;;;;;;;13.66;69.08;102015.34;3558239;40;20053;-63
2022/05/07 01:36:56;;;;;;;28.55;20.15;;;;;;;13.58;69.60;102012.22;3558634;40;20057;-63
2022/05/07 01:39:21;;;;;;;26.38;19.73;;;;;;;13.49;69.64;102003.75;3559234;40;20412;-63
2022/05/07 01:41:47;;;;;;;26.10;19.08;;;;;;;13.56;70.50;102019.53;3557855;40;20060;-65
2022/05/07 01:44:12;;;;;;;25.17;19.35;;;;;;;13.52;70.94;102023.38;3559355;40;20068;-64
2022/05/07 01:49:22;;;;;;;26.23;20.02;;;;;;;13.48;71.18;102005.59;3557587;40;20060;-63
2022/05/07 01:51:48;;;;;;;26.23;19.50;;;;;;;13.54;71.03;102013.38;3558452;40;20372;-63
2022/05/07 01:54:13;;;;;;;26.65;19.73;;;;;;;13.53;70.95;102018.84;3557772;40;20057;-65
2022/05/07 01:56:39;;;;;;;23.40;19.67;;;;;;;13.55;70.17;102023.22;3558998;40;20057;-64
2022/05/07 01:59:06;;;;;;;23.77;19.38;;;;;;;13.54;71.06;102016.06;3562548;40;20060;-64
2022/05/07 02:01:31;;;;;;;27.45;20.23;;;;;;;13.51;71.19;102018.03;3559365;40;20080;-63
2022/05/07 02:03:57;;;;;;;27.70;20.75;;;;;;;13.38;70.92;101993.53;3557869;40;20395;-64
2022/05/07 02:06:22;;;;;;;23.60;19.90;;;;;;;13.39;71.07;101995.31;3556816;40;20049;-64
2022/05/07 02:08:48;;;;;;;25.63;20.45;;;;;;;13.29;71.02;101978.72;3565028;40;20066;-64
2022/05/07 02:11:13;;;;;;;25.77;20.90;;;;;;;13.43;71.79;102013.06;3557013;40;20068;-62
2022/05/07 02:13:39;;;;;;;25.60;19.80;;;;;;;13.38;72.44;101998.94;3559898;40;20071;-64
2022/05/07 02:16:05;;;;;;;27.10;19.38;;;;;;;13.43;72.76;102002.25;3558171;40;20056;-63
2022/05/07 02:18:30;;;;;;;24.58;19.92;;;;;;;13.41;73.06;102005.03;3559501;40;20315;-64
2022/05/07 02:20:56;;;;;;;25.05;19.30;;;;;;;13.39;73.13;101995.31;3558391;40;20053;-65
2022/05/07 02:23:22;;;;;;;26.35;20.15;;;;;;;13.42;72.92;102008.63;3556829;40;20061;-63
2022/05/07 02:25:48;;;;;;;24.27;18.88;;;;;;;13.38;72.67;102001.63;3560675;40;20356;-64
2022/05/07 02:28:14;;;;;;;24.50;19.08;;;;;;;13.41;72.11;102004.16;3557525;40;20053;-65
2022/05/07 02:30:40;;;;;;;26.38;18.80;;;;;;;13.36;72.19;102000.88;3558575;40;20068;-63
2022/05/07 02:33:06;;;;;;;24.92;18.50;;;;;;;13.37;71.93;102003.47;3557331;40;20119;-63
2022/05/07 02:35:31;;;;;;;27.02;19.90;;;;;;;13.37;71.63;102000.75;3559822;40;20061;-64
2022/05/07 02:37:58;;;;;;;22.98;18.30;;;;;;;13.40;71.35;102007.84;3557237;40;20076;-64
2022/05/07 02:40:23;;;;;;;27.42;18.48;;;;;;;13.36;71.69;101990.06;3556519;40;20053;-62
2022/05/07 02:42:49;;;;;;;28.58;18.98;;;;;;;13.14;71.46;101948.00;3558038;40;20063;-64
2022/05/07 02:45:15;;;;;;;25.42;20.60;;;;;;;13.36;71.60;101990.06;3558211;40;20073;-63
2022/05/07 02:47:42;;;;;;;28.05;18.98;;;;;;;13.34;71.73;101986.56;3557279;40;20057;-64
2022/05/07 02:50:10;;;;;;;29.30;18.08;;;;;;;13.34;71.49;101981.16;3554379;40;20045;-65
2022/05/07 02:52:36;;;;;;;25.63;18.67;;;;;;;13.35;72.04;101989.19;3557482;40;20064;-65
2022/05/07 02:55:05;;;;;;;33.10;19.48;;;;;;;13.32;72.69;101988.47;3558718;40;20081;-65
2022/05/07 02:57:31;;;;;;;23.70;18.05;;;;;;;13.34;72.76;101981.16;3555801;40;20062;-65
2022/05/07 02:59:57;;;;;;;27.35;19.45;;;;;;;13.21;72.06;101960.19;3556753;40;20104;-63
2022/05/07 03:02:23;;;;;;;31.33;19.55;;;;;;;13.37;72.10;101984.56;3558305;40;20430;-63
2022/05/07 03:04:51;;;;;;;25.63;17.88;;;;;;;13.40;72.07;101988.94;3560410;40;20646;-64
2022/05/07 03:07:17;;;;;;;30.48;19.40;;;;;;;13.34;71.94;101976.63;3557864;40;20081;-65
2022/05/07 03:09:43;;;;;;;30.88;20.13;;;;;;;13.33;72.11;101977.59;3558128;40;20060;-67
2022/05/07 03:12:09;;;;;;;24.52;19.23;;;;;;;13.43;72.60;101986.06;3556821;40;20053;-65
2022/05/07 03:14:36;;;;;;;30.23;19.38;;;;;;;13.41;72.03;101982.56;3557741;40;20393;-64
2022/05/07 03:17:02;;;;;;;30.55;19.90;;;;;;;13.41;72.12;101986.13;3557079;40;20064;-64
2022/05/07 03:19:28;;;;;;;30.45;19.55;;;;;;;13.39;72.14;101973.69;3557300;40;20069;-65
2022/05/07 03:21:53;;;;;;;25.27;20.20;;;;;;;13.45;72.05;101981.47;3558316;40;20056;-65
2022/05/07 03:24:19;;;;;;;35.58;18.75;;;;;;;13.36;72.38;101966.63;3559142;40;20061;-65
2022/05/07 03:26:45;;;;;;;28.17;19.65;;;;;;;13.38;72.27;101972.81;3559094;40;20083;-64
2022/05/07 03:29:10;;;;;;;33.38;20.00;;;;;;;13.44;72.44;101985.97;3558101;40;20053;-64
2022/05/07 03:31:38;;;;;;;30.40;19.70;;;;;;;13.41;71.95;101988.81;3557097;40;20053;-66
2022/05/07 03:34:05;;;;;;;25.85;19.60;;;;;;;13.40;72.18;101987.09;3563218;40;20089;-64
2022/05/07 03:36:31;;;;;;;30.10;20.75;;;;;;;13.29;72.87;101970.63;3560536;40;20053;-64
2022/05/07 03:38:57;;;;;;;29.23;20.77;;;;;;;13.41;72.80;101982.56;3559161;40;20068;-64
2022/05/07 03:41:23;;;;;;;29.35;20.55;;;;;;;13.39;72.99;101990.75;3561750;40;20045;-65
2022/05/07 03:43:48;;;;;;;27.90;20.42;;;;;;;13.43;72.60;101996.88;3561173;40;20061;-66
2022/05/07 03:46:14;;;;;;;28.95;20.20;;;;;;;13.45;72.68;101985.03;3563658;40;20091;-63
2022/05/07 03:48:40;;;;;;;27.05;20.40;;;;;;;13.48;72.45;101994.78;3559156;40;20071;-65
2022/05/07 03:51:05;;;;;;;26.88;20.98;;;;;;;13.42;72.29;101978.94;3561074;40;20053;-64
2022/05/07 03:53:31;;;;;;;31.77;21.02;;;;;;;13.46;72.85;101992.16;3558683;40;20128;-65
2022/05/07 03:56:06;;;;;;;32.38;21.48;;;;;;;13.43;72.61;101997.72;3558596;40;20061;-64
2022/05/07 03:58:34;;;;;;;35.63;21.27;;;;;;;13.41;73.13;101987.97;3558575;40;20061;-66
2022/05/07 04:01:00;;;;;;;29.90;20.60;;;;;;;13.30;74.08;101987.69;3559744;40;20091;-66
2022/05/07 04:03:29;;;;;;;32.30;22.58;;;;;;;13.40;74.19;102008.69;3561110;40;20109;-65
2022/05/07 04:05:55;;;;;;;29.30;22.20;;;;;;;13.42;73.95;102000.53;3561568;40;20119;-65
2022/05/07 04:08:21;;;;;;;28.95;22.55;;;;;;;13.40;73.87;102002.44;3559597;40;20068;-65
2022/05/07 04:10:47;;;;;;;32.40;23.65;;;;;;;13.34;73.76;102000.94;3559953;40;20046;-65
2022/05/07 04:13:15;;;;;;;31.80;22.35;;;;;;;13.32;73.82;102005.56;3559835;40;20038;-66
2022/05/07 04:15:43;;;;;;;26.60;21.15;;;;;;;13.31;73.00;102009.19;3560709;40;20080;-64
2022/05/07 04:18:10;;;;;;;26.10;21.77;;;;;;;13.34;71.62;102018.97;3559556;40;20049;-66
2022/05/07 04:20:37;;;;;;;27.73;21.90;;;;;;;13.32;71.66;102018.16;3560182;40;20054;-65
2022/05/07 04:23:04;;;;;;;26.13;21.77;;;;;;;13.21;72.42;101997.13;3559370;40;20127;-65
2022/05/07 04:25:30;;;;;;;29.13;22.15;;;;;;;13.29;71.80;102007.53;3560428;40;20061;-64
2022/05/07 04:27:57;;;;;;;28.60;21.77;;;;;;;13.34;71.80;102005.47;3559561;40;20073;-67
2022/05/07 04:30:23;;;;;;;28.30;21.45;;;;;;;13.33;71.70;102009.13;3558354;40;20372;-65
2022/05/07 04:32:50;;;;;;;28.15;22.80;;;;;;;13.35;71.97;102012.59;3559378;40;20123;-62
2022/05/07 04:35:16;;;;;;;28.13;22.98;;;;;;;13.39;71.72;102016.91;3560082;40;20060;-65
2022/05/07 04:37:42;;;;;;;29.55;22.23;;;;;;;13.37;71.97;102008.00;3558972;40;20057;-64
2022/05/07 04:40:11;;;;;;;27.50;22.25;;;;;;;13.39;72.02;102014.22;3604215;22;20058;-62
2022/05/07 04:42:37;;;;;;;30.20;22.73;;;;;;;13.30;72.37;101998.50;3587573;40;20040;-62
2022/05/07 04:45:07;;;;;;;32.20;23.42;;;;;;;13.33;72.53;102001.03;3590701;40;20121;-62
2022/05/07 04:47:32;;;;;;;29.25;22.38;;;;;;;13.43;72.04;102019.34;3587562;40;20052;-62
2022/05/07 04:49:58;;;;;;;29.17;22.52;;;;;;;13.43;71.72;102021.19;3581659;40;20053;-61
2022/05/07 04:52:24;;;;;;;29.52;22.92;;;;;;;13.43;71.91;102026.56;3576657;40;20380;-62
2022/05/07 04:54:50;;;;;;;27.90;23.25;;;;;;;13.49;72.48;102028.94;3570329;40;20048;-62
2022/05/07 04:57:15;;;;;;;31.27;23.17;;;;;;;13.55;71.88;102027.75;3578586;40;20307;-62
2022/05/07 04:59:41;;;;;;;27.35;22.77;;;;;;;13.60;71.59;102036.44;3577689;40;20056;-62
2022/05/07 05:02:07;;;;;;;27.27;21.67;;;;;;;13.64;71.20;102021.84;3576625;40;20048;-62
2022/05/07 05:04:32;;;;;;;29.00;22.95;;;;;;;13.67;70.91;102027.94;3576954;40;20054;-62
2022/05/07 05:06:58;;;;;;;32.35;24.50;;;;;;;13.68;71.21;102029.66;3575763;40;20107;-62
2022/05/07 05:09:24;;;;;;;30.92;24.65;;;;;;;13.67;71.24;102045.97;3575932;40;20346;-62
2022/05/07 05:11:49;;;;;;;30.98;25.00;;;;;;;13.68;71.08;102040.47;3577132;40;20438;-62
2022/05/07 05:16:59;;;;;;;31.70;23.85;;;;;;;13.80;70.86;102051.56;3576003;40;20869;-62
2022/05/07 05:19:24;;;;;;;29.42;24.75;;;;;;;13.84;70.42;102055.84;3576540;40;20064;-62
2022/05/07 05:21:50;;;;;;;29.83;25.05;;;;;;;13.87;70.16;102056.53;3576977;40;20056;-62
2022/05/07 05:24:15;;;;;;;32.15;25.92;;;;;;;13.89;70.14;102057.34;3577596;40;20099;-61
2022/05/07 05:26:41;;;;;;;35.83;25.52;;;;;;;13.96;70.31;102055.16;3580331;40;20060;-61
2022/05/07 05:29:06;;;;;;;31.48;27.02;;;;;;;14.00;69.32;102062.13;3577407;40;20072;-62
2022/05/07 05:31:32;;;;;;;35.40;29.02;;;;;;;14.04;69.19;102063.69;3576925;40;20059;-62
2022/05/07 05:33:58;;;;;;;36.70;30.63;;;;;;;14.02;68.49;102071.03;3577470;40;20412;-61
2022/05/07 05:36:24;;;;;;;33.65;29.70;;;;;;;14.09;68.17;102071.56;3576785;40;20083;-61
2022/05/07 05:38:50;;;;;;;37.08;30.65;;;;;;;14.12;68.09;102074.97;3579571;40;20302;-60
2022/05/07 05:41:16;;;;;;;34.83;30.48;;;;;;;14.12;67.83;102076.78;3578157;40;20060;-61
2022/05/07 05:43:41;;;;;;;34.70;30.83;;;;;;;14.13;67.99;102074.00;3574756;40;20052;-61
2022/05/07 05:46:07;;;;;;;34.83;31.02;;;;;;;14.15;68.12;102077.50;3576789;40;20079;-64
2022/05/07 05:48:32;;;;;;;37.40;30.55;;;;;;;14.17;68.28;102075.56;3567912;40;20060;-61
2022/05/07 05:50:59;;;;;;;39.80;31.45;;;;;;;14.24;68.00;102075.19;3577088;40;20052;-60
2022/05/07 05:53:24;;;;;;;33.33;28.85;;;;;;;14.27;67.46;102075.94;3579636;40;20068;-61
2022/05/07 05:55:50;;;;;;;34.20;30.52;;;;;;;13.85;67.70;101998.13;3578241;40;20056;-61
2022/05/07 05:58:16;;;;;;;36.50;30.00;;;;;;;14.41;67.43;102080.53;3578168;40;20055;-61
2022/05/07 06:00:41;;;;;;;35.13;29.90;;;;;;;14.47;67.48;102077.47;3576535;40;20056;-62
2022/05/07 06:03:07;;;;;;;34.47;29.25;;;;;;;14.54;67.01;102073.47;3578431;40;20095;-63
2022/05/07 06:05:33;;;;;;;33.05;29.40;;;;;;;14.65;66.74;102074.66;3576258;40;20122;-63
2022/05/07 06:07:59;;;;;;;32.03;28.63;;;;;;;14.75;66.43;102073.19;3576422;40;20052;-62
2022/05/07 06:10:25;;;;;;;36.63;27.60;;;;;;;14.86;66.58;102074.25;3576392;40;20048;-63
2022/05/07 06:12:51;;;;;;;30.95;26.20;;;;;;;14.90;65.72;102064.13;3578409;40;20063;-62
2022/05/07 06:15:17;;;;;;;28.42;24.95;;;;;;;14.96;65.43;102061.03;3578184;40;20406;-63
2022/05/07 06:17:43;;;;;;;31.55;25.48;;;;;;;15.20;65.07;102079.47;3576863;40;20068;-62
2022/05/07 06:20:08;;;;;;;28.70;25.13;;;;;;;15.39;64.33;102080.09;3576560;40;20064;-61
2022/05/07 06:22:34;;;;;;;32.42;25.55;;;;;;;15.58;63.93;102076.22;3576431;40;20060;-62
2022/05/07 06:27:43;;;;;;;28.42;23.80;;;;;;;15.98;63.05;102085.41;3576517;40;20422;-62
2022/05/07 06:30:10;;;;;;;24.42;20.85;;;;;;;16.12;61.87;102089.97;3579347;40;20052;-63
2022/05/07 06:32:38;;;;;;;25.48;20.13;;;;;;;16.30;60.70;102075.22;3578623;40;20048;-62
2022/05/07 06:35:09;;;;;;;24.60;20.10;;;;;;;16.44;60.80;102088.72;3577957;40;20052;-62
2022/05/07 06:37:38;;;;;;;27.38;19.45;;;;;;;16.47;60.26;102083.09;3577113;40;20057;-63
2022/05/07 06:40:07;;;;;;;23.40;18.58;;;;;;;16.56;59.36;102081.59;3576623;40;20435;-61
2022/05/07 06:42:36;;;;;;;25.15;19.73;;;;;;;16.74;59.54;102093.06;3575463;40;20096;-62
2022/05/07 06:45:03;;;;;;;26.83;19.02;;;;;;;16.85;58.82;102093.25;3579006;40;20040;-61
2022/05/07 06:47:30;;;;;;;25.65;17.98;;;;;;;16.98;58.46;102095.13;3577002;40;20068;-61
2022/05/07 06:49:56;;;;;;;24.17;18.08;;;;;;;17.13;58.58;102092.22;3577819;40;20045;-61
2022/05/07 06:52:21;;;;;;;25.05;18.58;;;;;;;17.33;57.73;102093.53;3578874;40;20040;-61
2022/05/07 06:54:47;;;;;;;28.15;17.80;;;;;;;17.46;56.54;102092.69;3580150;40;20305;-61
2022/05/07 06:57:13;;;;;;;23.65;17.42;;;;;;;17.51;56.33;102095.94;3577219;40;20058;-62
2022/05/07 06:59:38;;;;;;;25.50;18.48;;;;;;;17.51;56.16;102090.50;3578673;40;20044;-62
2022/05/07 07:02:04;;;;;;;24.73;17.83;;;;;;;17.60;56.03;102088.00;3576903;40;20367;-61
2022/05/07 07:04:30;;;;;;;25.45;18.27;;;;;;;17.73;56.12;102095.25;3577372;40;20098;-61
2022/05/07 07:06:57;;;;;;;28.77;19.17;;;;;;;17.83;54.92;102090.97;3579698;40;20125;-60
2022/05/07 07:09:22;;;;;;;29.80;18.40;;;;;;;17.84;54.81;102082.66;3577795;40;20056;-61
2022/05/07 07:11:48;;;;;;;22.80;18.13;;;;;;;18.03;54.68;102089.50;3567683;40;20067;-61
2022/05/07 07:14:14;;;;;;;25.42;18.85;;;;;;;18.22;55.07;102087.16;3568509;40;20057;-62
2022/05/07 07:16:39;;;;;;;23.67;16.83;;;;;;;18.30;54.00;102084.75;3578266;40;20113;-62
2022/05/07 07:19:05;;;;;;;23.83;17.02;;;;;;;18.38;53.11;102089.59;3576449;40;20060;-61
2022/05/07 07:21:31;;;;;;;25.48;18.08;;;;;;;18.55;52.99;102096.50;3574650;40;20607;-61
2022/05/07 07:23:57;;;;;;;24.85;17.77;;;;;;;18.68;52.47;102091.88;3574796;40;20059;-62
2022/05/07 07:26:23;;;;;;;23.88;17.42;;;;;;;18.83;51.64;102089.00;3577085;40;20067;-60
2022/05/07 07:28:49;;;;;;;24.13;16.88;;;;;;;19.02;51.46;102089.31;3579689;40;20083;-61
2022/05/07 07:31:16;;;;;;;24.05;16.67;;;;;;;19.15;52.17;102098.25;3574825;40;20052;-62
2022/05/07 07:33:41;;;;;;;23.40;17.80;;;;;;;19.36;51.44;102094.88;3575003;40;20053;-61
2022/05/07 07:36:10;;;;;;;22.90;16.88;;;;;;;19.52;50.52;102092.66;3576298;40;20105;-61
2022/05/07 07:38:37;;;;;;;23.65;17.13;;;;;;;19.62;49.68;102090.06;3575455;40;20053;-62
2022/05/07 07:41:05;;;;;;;23.42;17.20;;;;;;;19.73;49.85;102091.94;3574591;40;20044;-62
2022/05/07 07:43:31;;;;;;;27.73;17.90;;;;;;;19.94;48.96;102090.22;3573809;40;20060;-61
2022/05/07 07:48:42;;;;;;;21.75;16.50;;;;;;;20.11;48.31;102059.69;3580012;40;20063;-61
2022/05/07 07:51:09;;;;;;;22.38;16.90;;;;;;;20.36;48.42;102074.00;3573796;40;20048;-61
2022/05/07 07:53:39;;;;;;;24.17;16.83;;;;;;;20.49;48.81;102085.66;3576295;40;20053;-61
2022/05/07 07:56:07;;;;;;;23.20;17.00;;;;;;;20.42;48.68;102046.19;3583363;40;20507;-62
2022/05/07 07:58:34;;;;;;;21.23;16.60;;;;;;;20.82;47.69;102101.09;3576398;40;20326;-61
2022/05/07 08:01:00;;;;;;;23.00;17.00;;;;;;;21.06;47.93;102089.06;3578424;40;20058;-61
2022/05/07 08:03:25;;;;;;;22.65;16.80;;;;;;;21.18;46.56;102093.44;3574748;40;20049;-61
2022/05/07 08:05:53;;;;;;;23.58;16.90;;;;;;;21.12;46.75;102061.16;3581580;40;20063;-62
2022/05/07 08:13:53;;;;;;;22.55;17.20;;;;;;;21.89;44.98;102085.41;3575356;40;20413;-62
2022/05/07 08:16:21;;;;;;;23.13;17.90;;;;;;;22.03;43.67;102084.13;3575836;40;20068;-62
2022/05/07 08:18:49;;;;;;;24.67;19.10;;;;;;;22.02;45.86;102077.81;3576133;40;20080;-61
2022/05/07 08:21:14;;;;;;;21.33;17.45;;;;;;;22.08;43.43;102076.38;3575875;40;20060;-62
2022/05/07 08:23:41;;;;;;;21.48;16.17;;;;;;;22.21;43.94;102081.66;3579166;40;20063;-62
2022/05/07 08:26:09;;;;;;;31.17;17.20;;;;;;;22.10;43.75;102090.78;3576792;40;20157;-61
2022/05/07 08:28:39;;;;;;;23.95;17.00;;;;;;;22.00;43.52;102093.50;3580922;40;20399;-61
2022/05/07 08:31:05;;;;;;;25.75;19.00;;;;;;;21.94;45.44;102091.31;3577992;40;20091;-61
2022/05/07 08:33:32;;;;;;;21.83;17.15;;;;;;;21.97;44.43;102090.16;3579320;40;20321;-60
2022/05/07 08:35:58;;;;;;;25.05;17.45;;;;;;;21.98;42.96;102092.78;3579934;40;20058;-61
2022/05/07 08:38:24;;;;;;;27.35;17.52;;;;;;;21.97;44.90;102095.66;3577667;40;20056;-61
2022/05/07 08:40:51;;;;;;;24.30;17.35;;;;;;;21.74;44.96;102070.34;3580961;40;20268;-61
2022/05/07 08:43:18;;;;;;;24.60;17.85;;;;;;;21.91;43.91;102097.06;3575465;40;20130;-62
2022/05/07 08:45:44;;;;;;;26.80;16.85;;;;;;;22.12;43.38;102096.16;3576322;40;20056;-59
2022/05/07 08:48:11;;;;;;;25.20;16.40;;;;;;;22.39;41.95;102092.78;3577103;40;20052;-60
2022/05/07 08:50:39;;;;;;;24.92;17.60;;;;;;;22.68;41.20;102106.53;3579032;40;20056;-60
2022/05/07 08:53:05;;;;;;;25.10;18.60;;;;;;;22.83;41.77;102077.66;3576515;40;20146;-60
2022/05/07 08:55:31;;;;;;;24.00;17.58;;;;;;;23.08;40.77;102087.22;3575700;40;20048;-62
2022/05/07 08:57:58;;;;;;;20.60;15.23;;;;;;;23.29;40.40;102089.78;3578038;40;20091;-60
2022/05/07 09:00:26;;;;;;;24.40;16.92;;;;;;;23.47;39.28;102089.03;3577526;40;20060;-62
2022/05/07 09:02:56;;;;;;;21.20;15.57;;;;;;;23.72;40.08;102093.88;3581997;40;20051;-61
2022/05/07 09:05:37;;;;;;;22.88;16.10;;;;;;;24.04;39.50;102087.09;3580429;40;21337;-61
2022/05/07 09:08:07;;;;;;;24.00;17.85;;;;;;;24.28;38.78;102098.41;3576520;40;20067;-61
2022/05/07 09:10:39;;;;;;;22.35;17.48;;;;;;;24.28;38.17;102086.53;3573279;40;20048;-60
2022/05/07 09:13:13;;;;;;;24.98;18.05;;;;;;;24.04;37.90;102089.84;3576758;40;20060;-59
2022/05/07 09:15:58;;;;;;;24.83;18.38;;;;;;;23.78;38.61;102085.03;3580451;40;20106;-60
2022/05/07 09:18:26;;;;;;;23.35;18.02;;;;;;;23.76;40.24;102084.34;3578377;40;20310;-60
2022/05/07 09:21:17;;;;;;;23.83;15.73;;;;;;;23.68;38.93;102080.59;3571677;40;20100;-61
2022/05/07 09:23:47;;;;;;;23.52;17.60;;;;;;;23.68;39.77;102086.94;3576296;40;20111;-61
2022/05/07 09:26:31;;;;;;;26.73;17.42;;;;;;;23.75;39.32;102081.75;3576239;40;20099;-61
2022/05/07 09:29:00;;;;;;;22.52;17.13;;;;;;;23.82;39.58;102078.25;3566782;40;20056;-60
2022/05/07 09:31:32;;;;;;;23.65;17.25;;;;;;;24.07;38.25;102079.44;3575908;40;20064;-61
2022/05/07 09:36:53;;;;;;;25.58;17.05;;;;;;;24.17;37.73;102056.50;3576810;40;20047;-62
2022/05/07 09:39:18;;;;;;;23.92;17.98;;;;;;;24.15;37.84;102081.41;3568994;40;20052;-62
2022/05/07 09:41:44;;;;;;;23.65;16.10;;;;;;;24.13;38.10;102077.94;3576165;40;20064;-60
2022/05/07 09:44:13;;;;;;;24.67;19.00;;;;;;;24.35;37.54;102081.28;3577368;40;20055;-60
2022/05/07 09:46:39;;;;;;;26.17;18.13;;;;;;;24.42;38.03;102076.94;3581697;40;20064;-60
2022/05/07 09:49:06;;;;;;;25.23;17.90;;;;;;;24.43;38.18;102078.69;3575240;40;20146;-61
2022/05/07 09:51:33;;;;;;;33.13;19.83;;;;;;;24.62;38.03;102080.44;3576393;40;20096;-61
2022/05/07 09:59:32;;;;;;;26.55;19.85;;;;;;;24.91;36.49;102083.78;3573430;40;20068;-61
2022/05/07 10:03:00;;;;;;;23.73;18.38;;;;;;;25.14;36.07;102084.19;3576145;40;20064;-61
2022/05/07 10:06:04;;;;;;;26.30;19.90;;;;;;;25.12;36.20;102066.06;3574196;40;20407;-62
2022/05/07 10:09:16;;;;;;;24.75;19.48;;;;;;;25.42;36.38;102081.28;3576443;40;20071;-61
2022/05/07 10:11:44;;;;;;;24.13;17.10;;;;;;;25.68;35.25;102084.88;3576232;40;20088;-60
2022/05/07 10:14:23;;;;;;;21.90;17.35;;;;;;;25.88;35.19;102087.44;3576059;40;20399;-62
2022/05/07 10:17:00;;;;;;;22.50;18.08;;;;;;;25.67;34.33;102025.34;3565675;40;20056;-61
2022/05/07 10:19:42;;;;;;;22.85;17.20;;;;;;;26.12;33.50;102073.78;3575678;40;20150;-62
2022/05/07 10:22:25;;;;;;;22.33;17.27;;;;;;;26.20;34.05;102072.06;3575813;40;20096;-60
2022/05/07 10:25:16;;;;;;;18.02;14.50;;;;;;;26.31;32.98;102069.00;3581664;40;20056;-60
2022/05/07 10:27:44;;;;;;;18.88;13.98;;;;;;;26.32;32.36;102073.47;3571973;40;20060;-61
2022/05/07 10:30:22;;;;;;;19.10;13.35;;;;;;;26.48;31.26;102068.03;3578181;40;20072;-61
2022/05/07 10:32:58;;;;;;;13.52;11.15;;;;;;;26.75;30.49;102072.41;3581262;40;20091;-61
2022/05/07 10:35:44;;;;;;;13.75;10.43;;;;;;;26.89;28.48;102064.47;3577334;40;20595;-62
2022/05/07 10:38:37;;;;;;;13.07;10.27;;;;;;;26.81;29.14;102060.69;3577230;40;20056;-61
2022/05/07 10:41:12;;;;;;;14.90;10.52;;;;;;;26.95;29.65;102072.91;3618037;22;20133;-64
2022/05/07 10:43:44;;;;;;;18.98;11.80;;;;;;;26.74;30.77;102040.34;3588097;40;20108;-62
2022/05/07 10:46:22;;;;;;;16.48;11.88;;;;;;;27.16;31.38;102061.41;3587299;40;20051;-62
2022/05/07 10:49:05;;;;;;;16.63;11.65;;;;;;;27.12;29.91;102048.97;3586810;40;20373;-64
2022/05/07 10:51:51;;;;;;;12.35;9.70;;;;;;;27.11;29.88;102041.69;3588762;39;20095;-63
2022/05/07 10:54:24;;;;;;;14.57;11.13;;;;;;;27.28;30.62;102048.09;3588027;40;20051;-64
2022/05/07 10:56:57;;;;;;;14.88;10.43;;;;;;;27.41;30.07;102042.88;3586871;40;20060;-65
2022/05/07 10:59:29;;;;;;;15.93;11.23;;;;;;;27.23;30.67;102043.09;3587913;40;20068;-64
2022/05/07 11:02:11;;;;;;;13.60;9.52;;;;;;;27.06;30.07;102050.50;3589945;40;20055;-64
2022/05/07 11:04:44;;;;;;;13.73;9.27;;;;;;;26.80;29.23;102044.28;3588105;40;20048;-63
2022/05/07 11:07:10;;;;;;;;;;;;;;;26.39;30.35;102046.97;3585833;40;20094;-63
2022/05/07 11:09:37;;;;;;;16.90;11.05;;;;;;;26.05;32.75;102049.81;3589967;40;20386;-64
2022/05/07 11:12:04;;;;;;;16.52;9.95;;;;;;;25.43;32.35;102027.94;3586247;40;20048;-64
2022/05/07 11:14:35;;;;;;;12.20;9.50;;;;;;;25.27;32.54;102033.34;3587766;40;20056;-63
2022/05/07 11:17:06;;;;;;;17.23;9.95;;;;;;;25.51;33.50;102050.03;3590307;40;20396;-63
2022/05/07 11:19:37;;;;;;;16.98;9.23;;;;;;;25.97;33.59;102044.25;3586861;39;20138;-64
2022/05/07 11:22:13;;;;;;;13.10;9.40;;;;;;;25.98;31.95;102040.50;3588528;40;20048;-64
2022/05/07 11:24:39;;;;;;;18.00;11.18;;;;;;;25.70;32.35;102047.03;3590368;40;20048;-64
2022/05/07 11:27:07;;;;;;;14.85;10.68;;;;;;;25.43;32.85;102052.72;3590044;40;20056;-63
2022/05/07 11:29:34;;;;;;;15.88;10.90;;;;;;;25.31;32.96;102051.28;3588174;40;20052;-64
2022/05/07 11:32:08;;;;;;;18.48;10.50;;;;;;;25.40;33.82;102045.66;3587312;40;20051;-63
2022/05/07 11:34:42;;;;;;;15.40;10.07;;;;;;;25.47;34.01;102045.91;3589588;40;20351;-63
2022/05/07 11:37:20;;;;;;;13.25;9.65;;;;;;;25.38;33.60;102041.34;3588205;40;20062;-62
2022/05/07 11:39:57;;;;;;;12.40;9.13;;;;;;;25.26;34.30;102034.41;3588338;39;20113;-63
2022/05/07 11:42:38;;;;;;;17.50;10.07;;;;;;;25.05;35.00;102042.97;3588964;40;20051;-64